PWSweather.com
Personal Weather Stations
Station Observations
SBERGENWX
Wood Ridge, NJ 07075

Wood Ridge, NJ 07075

Lat: 40.851667, Lon: -74.088131

Elevation: 177

Station Type: Davis Vantage Vue

http://201weather.com/

Latest ConditionsUpdated 8:00:01 PM EST Saturday, Jan 20, 2018
Currently Today's Max Today's Min Today's Average
Temperature 43.0°F6.1°C 50.5°F10.3°C 30.9°F-0.6°C 41.1°F5.1°C
Dew Point 29.2°F-1.6°C 29.9°F-1.2°C 21.2°F-6.0°C 25.8°F-3.4°C
Winds Calm Calm 8.1 mph W13.0 kmh W - 2.3 mph 3.7 kmh
Wind Gusts 2.3 mph3.7 kmh 13.8 mph22.2 kmh - -
Humidity 58% 67% 43% 55%
Pressure 30.01 in1016.3 mb 30.01 in1016.3 mb 29.85 in1010.8 mb -
Precipitation - 0.02 in0.5 mm - -
Hour Temp Dew Point Humidity Winds Wind Gusts Pressure Precip Precip Rate Daily Precip Total
08:00 PM 43.0°F6.1°C 29.2°F-1.6°C 58% Calm Calm 2.3 mph3.7 kmh 30.01 in1016.3 mb - 0.00 in0.0 mm 0.02 in0.5 mm
07:45 PM 43.3°F6.3°C 29.1°F-1.6°C 57% Calm Calm -- 30.00 in1015.9 mb - 0.00 in0.0 mm 0.02 in0.5 mm
07:30 PM 43.3°F6.3°C 29.1°F-1.6°C 57% Calm Calm -- 30.00 in1015.9 mb - 0.00 in0.0 mm 0.02 in0.5 mm
07:15 PM 43.8°F6.6°C 29.1°F-1.6°C 56% Calm Calm -- 29.99 in1015.6 mb - 0.00 in0.0 mm 0.02 in0.5 mm
07:00 PM 43.9°F6.6°C 29.2°F-1.6°C 56% Calm Calm 2.3 mph3.7 kmh 29.98 in1015.2 mb - 0.00 in0.0 mm 0.02 in0.5 mm
06:45 PM 44.2°F6.8°C 29.0°F-1.7°C 55% 1.2 mph WNW1.9 kmh WNW 2.3 mph3.7 kmh 29.97 in1014.9 mb - 0.00 in0.0 mm 0.02 in0.5 mm
06:30 PM 44.4°F6.9°C 29.2°F-1.6°C 55% 1.2 mph W1.9 kmh W 1.2 mph1.9 kmh 29.97 in1014.9 mb - 0.00 in0.0 mm 0.02 in0.5 mm
06:15 PM 44.6°F7.0°C 29.0°F-1.7°C 54% 1.2 mph WSW1.9 kmh WSW 2.3 mph3.7 kmh 29.96 in1014.6 mb - 0.00 in0.0 mm 0.02 in0.5 mm
06:00 PM 45.1°F7.3°C 28.9°F-1.7°C 53% Calm Calm 1.2 mph1.9 kmh 29.95 in1014.2 mb - 0.00 in0.0 mm 0.02 in0.5 mm
05:45 PM 45.3°F7.4°C 29.2°F-1.6°C 53% 1.2 mph W1.9 kmh W 4.6 mph7.4 kmh 29.95 in1014.2 mb - 0.00 in0.0 mm 0.02 in0.5 mm
05:30 PM 45.7°F7.6°C 29.1°F-1.6°C 52% 1.2 mph WNW1.9 kmh WNW 2.3 mph3.7 kmh 29.94 in1013.9 mb - 0.00 in0.0 mm 0.02 in0.5 mm
05:15 PM 46.3°F7.9°C 29.1°F-1.6°C 51% 1.2 mph WSW1.9 kmh WSW 2.3 mph3.7 kmh 29.93 in1013.5 mb - 0.00 in0.0 mm 0.02 in0.5 mm
05:00 PM 46.9°F8.3°C 29.2°F-1.6°C 50% 2.3 mph WSW3.7 kmh WSW 4.6 mph7.4 kmh 29.93 in1013.5 mb - 0.00 in0.0 mm 0.02 in0.5 mm
04:45 PM 47.4°F8.6°C 28.7°F-1.8°C 48% 5.8 mph WNW9.3 kmh WNW 11.5 mph18.5 kmh 29.92 in1013.2 mb - 0.00 in0.0 mm 0.02 in0.5 mm
04:30 PM 47.7°F8.7°C 29.0°F-1.7°C 48% 3.5 mph WNW5.6 kmh WNW 5.8 mph9.3 kmh 29.91 in1012.9 mb - 0.00 in0.0 mm 0.02 in0.5 mm
04:15 PM 47.9°F8.8°C 29.1°F-1.6°C 48% 1.2 mph W1.9 kmh W 3.5 mph5.6 kmh 29.90 in1012.5 mb - 0.00 in0.0 mm 0.02 in0.5 mm
04:00 PM 48.2°F9.0°C 28.9°F-1.7°C 47% 5.8 mph W9.3 kmh W 9.2 mph14.8 kmh 29.90 in1012.5 mb - 0.00 in0.0 mm 0.02 in0.5 mm
03:45 PM 48.4°F9.1°C 29.1°F-1.6°C 47% 3.5 mph WNW5.6 kmh WNW 3.5 mph5.6 kmh 29.89 in1012.2 mb - 0.00 in0.0 mm 0.02 in0.5 mm
03:30 PM 48.4°F9.1°C 29.1°F-1.6°C 47% 2.3 mph W3.7 kmh W 3.5 mph5.6 kmh 29.88 in1011.9 mb - 0.00 in0.0 mm 0.02 in0.5 mm
03:15 PM 48.3°F9.1°C 29.0°F-1.7°C 47% 4.6 mph WNW7.4 kmh WNW 11.5 mph18.5 kmh 29.87 in1011.5 mb - 0.00 in0.0 mm 0.02 in0.5 mm
03:00 PM 48.3°F9.1°C 29.0°F-1.7°C 47% 3.5 mph WNW5.6 kmh WNW 10.4 mph16.7 kmh 29.87 in1011.5 mb - 0.00 in0.0 mm 0.02 in0.5 mm
02:45 PM 48.4°F9.1°C 29.1°F-1.6°C 47% 4.6 mph WNW7.4 kmh WNW 8.1 mph13.0 kmh 29.86 in1011.2 mb - 0.00 in0.0 mm 0.02 in0.5 mm
02:30 PM 49.2°F9.6°C 28.7°F-1.8°C 45% 3.5 mph WSW5.6 kmh WSW 6.9 mph11.1 kmh 29.86 in1011.2 mb - 0.00 in0.0 mm 0.02 in0.5 mm
02:15 PM 49.5°F9.7°C 29.0°F-1.7°C 45% 5.8 mph W9.3 kmh W 8.1 mph13.0 kmh 29.86 in1011.2 mb - 0.00 in0.0 mm 0.02 in0.5 mm
02:00 PM 49.9°F9.9°C 29.4°F-1.4°C 45% 2.3 mph WNW3.7 kmh WNW 4.6 mph7.4 kmh 29.86 in1011.2 mb - 0.00 in0.0 mm 0.02 in0.5 mm
01:45 PM 50.3°F10.2°C 29.8°F-1.2°C 45% 3.5 mph W5.6 kmh W 5.8 mph9.3 kmh 29.85 in1010.8 mb - 0.00 in0.0 mm 0.02 in0.5 mm
01:30 PM 49.5°F9.7°C 29.0°F-1.7°C 45% 3.5 mph W5.6 kmh W 11.5 mph18.5 kmh 29.85 in1010.8 mb - 0.00 in0.0 mm 0.02 in0.5 mm
01:15 PM 49.9°F9.9°C 28.8°F-1.8°C 44% 8.1 mph W13.0 kmh W 13.8 mph22.2 kmh 29.85 in1010.8 mb - 0.00 in0.0 mm 0.02 in0.5 mm
01:00 PM 50.1°F10.1°C 28.4°F-2.0°C 43% 5.8 mph WSW9.3 kmh WSW 11.5 mph18.5 kmh 29.85 in1010.8 mb - 0.00 in0.0 mm 0.02 in0.5 mm
12:45 PM 50.4°F10.2°C 28.7°F-1.8°C 43% 5.8 mph WSW9.3 kmh WSW 10.4 mph16.7 kmh 29.85 in1010.8 mb - 0.00 in0.0 mm 0.02 in0.5 mm
12:30 PM 50.5°F10.3°C 28.8°F-1.8°C 43% 3.5 mph WSW5.6 kmh WSW 5.8 mph9.3 kmh 29.85 in1010.8 mb - 0.00 in0.0 mm 0.02 in0.5 mm
12:15 PM 50.1°F10.1°C 28.4°F-2.0°C 43% 3.5 mph W5.6 kmh W 5.8 mph9.3 kmh 29.86 in1011.2 mb - 0.00 in0.0 mm 0.02 in0.5 mm
12:00 PM 50.4°F10.2°C 29.9°F-1.2°C 45% 2.3 mph W3.7 kmh W 4.6 mph7.4 kmh 29.86 in1011.2 mb - 0.00 in0.0 mm 0.02 in0.5 mm
11:45 AM 49.4°F9.7°C 29.0°F-1.7°C 45% 3.5 mph W5.6 kmh W 4.6 mph7.4 kmh 29.87 in1011.5 mb - 0.00 in0.0 mm 0.02 in0.5 mm
11:30 AM 48.7°F9.3°C 28.8°F-1.8°C 46% 3.5 mph W5.6 kmh W 6.9 mph11.1 kmh 29.88 in1011.9 mb - 0.00 in0.0 mm 0.02 in0.5 mm
11:15 AM 48.1°F8.9°C 28.3°F-2.1°C 46% 5.8 mph WSW9.3 kmh WSW 9.2 mph14.8 kmh 29.89 in1012.2 mb - 0.00 in0.0 mm 0.02 in0.5 mm
11:00 AM 47.6°F8.7°C 28.3°F-2.1°C 47% 4.6 mph W7.4 kmh W 8.1 mph13.0 kmh 29.89 in1012.2 mb - 0.00 in0.0 mm 0.02 in0.5 mm
10:45 AM 46.6°F8.1°C 28.0°F-2.2°C 48% 4.6 mph W7.4 kmh W 3.5 mph5.6 kmh 29.89 in1012.2 mb - 0.01 in0.3 mm 0.02 in0.5 mm
10:30 AM 46.0°F7.8°C 27.9°F-2.3°C 49% 3.5 mph WSW5.6 kmh WSW 4.6 mph7.4 kmh 29.89 in1012.2 mb - 0.00 in0.0 mm 0.01 in0.3 mm
10:15 AM 45.2°F7.3°C 27.7°F-2.4°C 50% 1.2 mph WSW1.9 kmh WSW 8.1 mph13.0 kmh 29.90 in1012.5 mb - 0.00 in0.0 mm 0.01 in0.3 mm
10:00 AM 44.1°F6.7°C 27.1°F-2.7°C 51% 2.3 mph WSW3.7 kmh WSW 4.6 mph7.4 kmh 29.90 in1012.5 mb - 0.00 in0.0 mm 0.01 in0.3 mm
09:45 AM 43.4°F6.3°C 26.5°F-3.1°C 51% 5.8 mph WSW9.3 kmh WSW 8.1 mph13.0 kmh 29.90 in1012.5 mb - 0.00 in0.0 mm 0.01 in0.3 mm
09:30 AM 42.7°F5.9°C 26.3°F-3.2°C 52% 3.5 mph W5.6 kmh W 9.2 mph14.8 kmh 29.90 in1012.5 mb - 0.00 in0.0 mm 0.01 in0.3 mm
09:15 AM 42.3°F5.7°C 26.0°F-3.3°C 52% 2.3 mph W3.7 kmh W 4.6 mph7.4 kmh 29.89 in1012.2 mb - 0.01 in0.3 mm 0.01 in0.3 mm
09:00 AM 41.4°F5.2°C 25.5°F-3.6°C 53% 3.5 mph W5.6 kmh W 9.2 mph14.8 kmh 29.88 in1011.9 mb - 0.00 in0.0 mm 0.00 in0.0 mm
08:45 AM 40.7°F4.8°C 25.3°F-3.7°C 54% 3.5 mph W5.6 kmh W 3.5 mph5.6 kmh 29.88 in1011.9 mb - 0.00 in0.0 mm 0.00 in0.0 mm
08:30 AM 39.6°F4.2°C 24.8°F-4.0°C 55% 2.3 mph W3.7 kmh W 5.8 mph9.3 kmh 29.88 in1011.9 mb - 0.00 in0.0 mm 0.00 in0.0 mm
08:15 AM 38.7°F3.7°C 24.8°F-4.0°C 57% 2.3 mph WSW3.7 kmh WSW 5.8 mph9.3 kmh 29.87 in1011.5 mb - 0.00 in0.0 mm 0.00 in0.0 mm
08:00 AM 38.0°F3.3°C 24.1°F-4.4°C 57% 3.5 mph WSW5.6 kmh WSW 4.6 mph7.4 kmh 29.87 in1011.5 mb - 0.00 in0.0 mm 0.00 in0.0 mm
07:45 AM 37.7°F3.2°C 23.8°F-4.6°C 57% 1.2 mph W1.9 kmh W 3.5 mph5.6 kmh 29.87 in1011.5 mb - 0.00 in0.0 mm 0.00 in0.0 mm
07:30 AM 37.5°F3.1°C 23.6°F-4.7°C 57% 1.2 mph W1.9 kmh W 4.6 mph7.4 kmh 29.87 in1011.5 mb - 0.00 in0.0 mm 0.00 in0.0 mm
07:15 AM 37.1°F2.8°C 23.7°F-4.6°C 58% 2.3 mph WSW3.7 kmh WSW 5.8 mph9.3 kmh 29.87 in1011.5 mb - 0.00 in0.0 mm 0.00 in0.0 mm
07:00 AM 36.5°F2.5°C 23.5°F-4.7°C 59% 2.3 mph W3.7 kmh W 3.5 mph5.6 kmh 29.87 in1011.5 mb - 0.00 in0.0 mm 0.00 in0.0 mm
06:45 AM 36.0°F2.2°C 23.0°F-5.0°C 59% 1.2 mph SSW1.9 kmh SSW 3.5 mph5.6 kmh 29.86 in1011.2 mb - 0.00 in0.0 mm 0.00 in0.0 mm
06:30 AM 35.3°F1.8°C 23.2°F-4.9°C 61% 1.2 mph WSW1.9 kmh WSW 3.5 mph5.6 kmh 29.87 in1011.5 mb - 0.00 in0.0 mm 0.00 in0.0 mm
06:15 AM 34.0°F1.1°C 22.8°F-5.1°C 63% 2.3 mph SW3.7 kmh SW 4.6 mph7.4 kmh 29.86 in1011.2 mb - 0.00 in0.0 mm 0.00 in0.0 mm
06:00 AM 32.5°F0.3°C 22.0°F-5.6°C 65% Calm Calm 1.2 mph1.9 kmh 29.87 in1011.5 mb - 0.00 in0.0 mm 0.00 in0.0 mm
05:45 AM 32.8°F0.4°C 21.9°F-5.6°C 64% Calm Calm 1.2 mph1.9 kmh 29.87 in1011.5 mb - 0.00 in0.0 mm 0.00 in0.0 mm
05:30 AM 33.3°F0.7°C 21.7°F-5.7°C 62% 1.2 mph S1.9 kmh S 1.2 mph1.9 kmh 29.88 in1011.9 mb - 0.00 in0.0 mm 0.00 in0.0 mm
05:15 AM 33.3°F0.7°C 22.1°F-5.5°C 63% 1.2 mph SSW1.9 kmh SSW 3.5 mph5.6 kmh 29.88 in1011.9 mb - 0.00 in0.0 mm 0.00 in0.0 mm
05:00 AM 33.1°F0.6°C 21.5°F-5.8°C 62% 1.2 mph SSW1.9 kmh SSW 2.3 mph3.7 kmh 29.88 in1011.9 mb - 0.00 in0.0 mm 0.00 in0.0 mm
04:45 AM 33.2°F0.7°C 21.6°F-5.8°C 62% 1.2 mph S1.9 kmh S 2.3 mph3.7 kmh 29.88 in1011.9 mb - 0.00 in0.0 mm 0.00 in0.0 mm
04:30 AM 33.4°F0.8°C 21.8°F-5.7°C 62% 1.2 mph S1.9 kmh S 2.3 mph3.7 kmh 29.88 in1011.9 mb - 0.00 in0.0 mm 0.00 in0.0 mm
04:15 AM 33.8°F1.0°C 21.8°F-5.7°C 61% 1.2 mph S1.9 kmh S 1.2 mph1.9 kmh 29.89 in1012.2 mb - 0.00 in0.0 mm 0.00 in0.0 mm
04:00 AM 33.7°F0.9°C 21.7°F-5.7°C 61% 2.3 mph SSW3.7 kmh SSW 4.6 mph7.4 kmh 29.89 in1012.2 mb - 0.00 in0.0 mm 0.00 in0.0 mm
03:45 AM 33.4°F0.8°C 21.8°F-5.7°C 62% 2.3 mph SSW3.7 kmh SSW 5.8 mph9.3 kmh 29.89 in1012.2 mb - 0.00 in0.0 mm 0.00 in0.0 mm
03:30 AM 32.4°F0.2°C 21.6°F-5.8°C 64% 1.2 mph SSW1.9 kmh SSW 3.5 mph5.6 kmh 29.89 in1012.2 mb - 0.00 in0.0 mm 0.00 in0.0 mm
03:15 AM 31.2°F-0.4°C 21.5°F-5.8°C 67% 1.2 mph SSW1.9 kmh SSW 2.3 mph3.7 kmh 29.89 in1012.2 mb - 0.00 in0.0 mm 0.00 in0.0 mm
03:00 AM 30.9°F-0.6°C 21.2°F-6.0°C 67% Calm Calm 1.2 mph1.9 kmh 29.90 in1012.5 mb - 0.00 in0.0 mm 0.00 in0.0 mm
02:45 AM 31.0°F-0.6°C 21.3°F-5.9°C 67% 1.2 mph S1.9 kmh S 2.3 mph3.7 kmh 29.90 in1012.5 mb - 0.00 in0.0 mm 0.00 in0.0 mm
02:30 AM 31.3°F-0.4°C 21.3°F-5.9°C 66% Calm Calm 1.2 mph1.9 kmh 29.90 in1012.5 mb - 0.00 in0.0 mm 0.00 in0.0 mm
02:15 AM 31.5°F-0.3°C 21.4°F-5.9°C 66% 1.2 mph SSW1.9 kmh SSW 3.5 mph5.6 kmh 29.91 in1012.9 mb - 0.00 in0.0 mm 0.00 in0.0 mm
02:00 AM 31.4°F-0.3°C 21.3°F-5.9°C 66% 1.2 mph S1.9 kmh S 3.5 mph5.6 kmh 29.91 in1012.9 mb - 0.00 in0.0 mm 0.00 in0.0 mm
01:45 AM 31.5°F-0.3°C 21.4°F-5.9°C 66% 1.2 mph S1.9 kmh S 3.5 mph5.6 kmh 29.90 in1012.5 mb - 0.00 in0.0 mm 0.00 in0.0 mm
01:30 AM 31.5°F-0.3°C 21.4°F-5.9°C 66% 1.2 mph S1.9 kmh S 2.3 mph3.7 kmh 29.91 in1012.9 mb - 0.00 in0.0 mm 0.00 in0.0 mm
01:15 AM 31.7°F-0.2°C 21.3°F-5.9°C 65% 1.2 mph S1.9 kmh S 2.3 mph3.7 kmh 29.91 in1012.9 mb - 0.00 in0.0 mm 0.00 in0.0 mm
01:00 AM 32.1°F0.1°C 21.6°F-5.8°C 65% Calm Calm 1.2 mph1.9 kmh 29.91 in1012.9 mb - 0.00 in0.0 mm 0.00 in0.0 mm
12:45 AM 32.7°F0.4°C 21.5°F-5.8°C 63% Calm Calm 1.2 mph1.9 kmh 29.92 in1013.2 mb - 0.00 in0.0 mm 0.00 in0.0 mm
12:30 AM 33.2°F0.7°C 21.5°F-5.8°C 62% 1.2 mph SSW1.9 kmh SSW 2.3 mph3.7 kmh 29.92 in1013.2 mb - 0.00 in0.0 mm 0.00 in0.0 mm
12:15 AM 33.3°F0.7°C 21.7°F-5.7°C 62% 1.2 mph SW1.9 kmh SW 3.5 mph5.6 kmh 29.93 in1013.5 mb - 0.00 in0.0 mm 0.00 in0.0 mm
12:00 AM 33.4°F0.8°C 21.4°F-5.9°C 61% Calm Calm 1.2 mph1.9 kmh 29.93 in1013.5 mb - 0.00 in0.0 mm 0.00 in0.0 mm